createdAt,value
2019-02-21T00:03:37.575Z,20.43
2019-02-21T00:06:06.093Z,21.07
2019-02-21T00:08:34.767Z,21.48
2019-02-21T00:11:03.562Z,20.92
2019-02-21T00:13:32.224Z,20.65
2019-02-21T00:16:00.753Z,20.55
2019-02-21T00:18:29.381Z,21.77
2019-02-21T00:20:57.886Z,21.15
2019-02-21T00:23:26.486Z,21.27
2019-02-21T00:25:55.833Z,21.00
2019-02-21T00:28:25.246Z,20.75
2019-02-21T00:30:53.691Z,21.85
2019-02-21T00:33:22.175Z,21.10
2019-02-21T00:35:50.725Z,21.80
2019-02-21T00:38:19.369Z,21.30
2019-02-21T00:40:47.857Z,21.87
2019-02-21T00:43:16.308Z,21.68
2019-02-21T00:45:44.759Z,21.65
2019-02-21T00:48:13.585Z,22.37
2019-02-21T00:50:44.667Z,22.10
2019-02-21T00:53:14.664Z,23.30
2019-02-21T00:55:43.164Z,22.30
2019-02-21T00:58:11.615Z,23.22
2019-02-21T01:00:46.464Z,23.55
2019-02-21T01:03:10.284Z,22.62
2019-02-21T01:05:38.764Z,24.03
2019-02-21T01:08:07.900Z,22.85
2019-02-21T01:10:36.395Z,22.93
2019-02-21T01:13:04.973Z,24.23
2019-02-21T01:15:33.424Z,22.30
2019-02-21T01:18:01.913Z,23.10
2019-02-21T01:20:31.820Z,23.62
2019-02-21T01:23:00.260Z,23.62
2019-02-21T01:25:28.808Z,23.25
2019-02-21T01:27:57.379Z,24.63
2019-02-21T01:30:25.833Z,24.43
2019-02-21T01:32:54.308Z,25.25
2019-02-21T01:35:23.249Z,23.98
2019-02-21T01:37:51.749Z,24.72
2019-02-21T01:40:20.693Z,23.42
2019-02-21T01:42:49.502Z,24.95
2019-02-21T01:45:17.966Z,25.40
2019-02-21T01:47:47.502Z,24.40
2019-02-21T01:50:15.976Z,25.50
2019-02-21T01:52:44.519Z,25.32
2019-02-21T01:55:13.072Z,24.70
2019-02-21T01:57:41.538Z,25.77
2019-02-21T02:00:12.203Z,26.12
2019-02-21T02:02:42.739Z,26.97
2019-02-21T02:05:11.182Z,27.48
2019-02-21T02:07:39.726Z,27.52
2019-02-21T02:10:09.546Z,27.15
2019-02-21T02:12:38.151Z,29.05
2019-02-21T02:15:08.892Z,28.50
2019-02-21T02:17:37.377Z,26.93
2019-02-21T02:20:07.765Z,28.85
2019-02-21T02:22:36.851Z,28.23
2019-02-21T02:25:06.813Z,27.80
2019-02-21T02:27:40.839Z,29.95
2019-02-21T02:30:09.574Z,28.75
2019-02-21T02:32:38.090Z,29.52
2019-02-21T02:35:06.772Z,29.25
2019-02-21T02:37:35.313Z,28.73
2019-02-21T02:40:05.614Z,28.92
2019-02-21T02:42:34.131Z,29.48
2019-02-21T02:45:02.584Z,29.77
2019-02-21T02:47:32.811Z,30.50
2019-02-21T02:50:01.335Z,31.00
2019-02-21T02:52:29.876Z,30.08
2019-02-21T02:54:58.432Z,29.55
2019-02-21T02:57:26.883Z,30.65
2019-02-21T02:59:55.418Z,31.57
2019-02-21T03:02:23.903Z,30.43
2019-02-21T03:04:52.449Z,30.82
2019-02-21T03:07:20.991Z,31.60
2019-02-21T03:09:49.516Z,32.03
2019-02-21T03:12:17.981Z,32.48
2019-02-21T03:14:46.502Z,32.23
2019-02-21T03:17:14.980Z,31.30
2019-02-21T03:19:43.432Z,33.13
2019-02-21T03:22:11.879Z,31.45
2019-02-21T03:24:40.359Z,33.10
2019-02-21T03:27:08.812Z,33.63
2019-02-21T03:29:37.274Z,32.48
2019-02-21T03:32:05.759Z,33.67
2019-02-21T03:34:34.229Z,34.27
2019-02-21T03:37:02.737Z,35.17
2019-02-21T03:39:31.213Z,34.43
2019-02-21T03:41:59.665Z,33.67
2019-02-21T03:44:29.002Z,33.92
2019-02-21T03:46:57.496Z,35.15
2019-02-21T03:49:25.941Z,36.10
2019-02-21T03:51:54.403Z,37.10
2019-02-21T03:54:23.021Z,34.88
2019-02-21T03:56:51.541Z,35.73
2019-02-21T03:59:20.018Z,35.17
2019-02-21T04:01:48.584Z,35.50
2019-02-21T04:04:17.095Z,36.05
2019-02-21T04:06:45.682Z,36.05
2019-02-21T04:09:14.186Z,36.00
2019-02-21T04:11:42.705Z,36.03
2019-02-21T04:14:11.235Z,35.63
2019-02-21T04:16:39.779Z,37.75
2019-02-21T04:19:08.232Z,37.17
2019-02-21T04:21:36.700Z,36.00
2019-02-21T04:24:05.252Z,37.70
2019-02-21T04:26:33.769Z,37.88
2019-02-21T04:29:02.216Z,37.10
2019-02-21T04:31:30.736Z,38.23
2019-02-21T04:33:59.521Z,36.55
2019-02-21T04:36:29.537Z,35.92
2019-02-21T04:38:58.120Z,37.78
2019-02-21T04:41:26.574Z,36.95
2019-02-21T04:43:56.570Z,37.25
2019-02-21T04:46:25.033Z,36.20
2019-02-21T04:48:53.515Z,36.55
2019-02-21T04:51:22.028Z,36.40
2019-02-21T04:53:50.567Z,37.60
2019-02-21T04:56:19.020Z,35.65
2019-02-21T04:58:47.488Z,37.63
2019-02-21T05:01:15.936Z,37.33
2019-02-21T05:03:44.404Z,35.28
2019-02-21T05:06:12.864Z,35.98
2019-02-21T05:08:41.321Z,36.30
2019-02-21T05:11:09.876Z,34.55
2019-02-21T05:13:38.400Z,35.85
2019-02-21T05:16:06.853Z,37.00
2019-02-21T05:18:35.553Z,36.83
2019-02-21T05:21:05.851Z,35.65
2019-02-21T05:23:36.686Z,36.33
2019-02-21T05:26:05.417Z,34.22
2019-02-21T05:28:33.859Z,35.35
2019-02-21T05:31:04.075Z,34.63
2019-02-21T05:33:36.683Z,35.45
2019-02-21T05:36:11.572Z,38.37
2019-02-21T05:38:47.441Z,37.20
2019-02-21T05:41:19.364Z,36.50
2019-02-21T05:43:49.538Z,37.85
2019-02-21T05:46:19.713Z,37.15
2019-02-21T05:49:12.090Z,37.20
2019-02-21T05:51:42.225Z,38.98
2019-02-21T05:54:12.857Z,38.65
2019-02-21T05:56:43.188Z,38.35
2019-02-21T05:59:13.307Z,37.90
2019-02-21T06:01:43.401Z,37.15
2019-02-21T06:04:16.503Z,36.93
2019-02-21T06:06:55.624Z,36.50
2019-02-21T06:09:25.725Z,36.80
2019-02-21T06:11:58.649Z,37.40
2019-02-21T06:14:38.268Z,37.07
2019-02-21T06:17:29.079Z,38.35
2019-02-21T06:19:59.984Z,38.02
2019-02-21T06:22:38.695Z,38.05
2019-02-21T06:25:08.960Z,38.38
2019-02-21T06:27:55.262Z,39.25
2019-02-21T06:30:28.185Z,39.67
2019-02-21T06:33:04.577Z,38.80
2019-02-21T06:35:27.011Z,38.70
2019-02-21T06:37:55.614Z,40.48
2019-02-21T06:40:24.109Z,38.65
2019-02-21T06:42:54.615Z,39.42
2019-02-21T06:45:24.597Z,42.40
2019-02-21T06:47:53.821Z,41.63
2019-02-21T06:50:26.778Z,40.05
2019-02-21T06:52:52.470Z,49.95
2019-02-21T06:55:20.967Z,40.93
2019-02-21T06:57:51.100Z,40.08
2019-02-21T07:00:21.070Z,41.57
2019-02-21T07:02:49.636Z,39.03
2019-02-21T07:05:18.219Z,40.58
2019-02-21T07:07:46.689Z,40.85
2019-02-21T07:10:16.564Z,44.48
2019-02-21T07:12:45.400Z,40.70
2019-02-21T07:15:15.115Z,39.60
2019-02-21T07:17:49.220Z,38.53
2019-02-21T07:20:15.189Z,39.63
2019-02-21T07:22:47.457Z,39.60
2019-02-21T07:25:34.040Z,40.10
2019-02-21T07:28:11.663Z,39.63
2019-02-21T07:30:34.405Z,38.65
2019-02-21T07:33:03.390Z,39.92
2019-02-21T07:35:31.957Z,36.90
2019-02-21T07:38:00.632Z,38.30
2019-02-21T07:40:29.247Z,39.00
2019-02-21T07:42:59.366Z,37.88
2019-02-21T07:45:27.906Z,38.78
2019-02-21T07:47:56.642Z,35.88
2019-02-21T07:50:25.107Z,37.55
2019-02-21T07:53:02.052Z,36.28
2019-02-21T07:55:27.001Z,36.83
2019-02-21T07:57:55.654Z,36.83
2019-02-21T08:00:24.178Z,36.50
2019-02-21T08:02:52.647Z,39.03
2019-02-21T08:05:23.610Z,37.17
2019-02-21T08:07:51.945Z,36.03
2019-02-21T08:10:25.807Z,35.50
2019-02-21T08:12:53.454Z,34.90
2019-02-21T08:15:21.257Z,35.80
2019-02-21T08:17:50.161Z,34.85
2019-02-21T08:20:20.097Z,34.58
2019-02-21T08:22:48.631Z,35.68
2019-02-21T08:25:19.439Z,34.50
2019-02-21T08:27:52.818Z,33.45
2019-02-21T08:30:21.277Z,35.23
2019-02-21T08:33:00.553Z,33.92
2019-02-21T08:35:31.271Z,33.58
2019-02-21T08:37:59.824Z,33.33
2019-02-21T08:40:28.445Z,35.08
2019-02-21T08:42:56.959Z,35.98
2019-02-21T08:45:25.493Z,35.17
2019-02-21T08:47:54.013Z,34.35
2019-02-21T08:50:23.982Z,34.20
2019-02-21T08:52:53.545Z,33.65
2019-02-21T08:55:22.038Z,34.38
2019-02-21T08:57:50.623Z,33.42
2019-02-21T09:00:22.163Z,32.53
2019-02-21T09:02:52.914Z,33.08
2019-02-21T09:05:21.514Z,33.20
2019-02-21T09:07:53.771Z,33.83
2019-02-21T09:10:22.377Z,33.73
2019-02-21T09:12:50.898Z,33.55
2019-02-21T09:15:21.707Z,34.25
2019-02-21T09:17:50.527Z,33.13
2019-02-21T09:20:18.981Z,33.55
2019-02-21T09:22:47.432Z,35.17
2019-02-21T09:25:16.098Z,33.88
2019-02-21T09:27:44.562Z,31.70
2019-02-21T09:30:18.291Z,33.35
2019-02-21T09:32:47.413Z,32.55
2019-02-21T09:35:15.983Z,31.05
2019-02-21T09:37:44.518Z,30.23
2019-02-21T09:40:14.595Z,30.08
2019-02-21T09:42:43.819Z,31.75
2019-02-21T09:45:18.307Z,29.80
2019-02-21T09:47:47.005Z,30.85
2019-02-21T09:50:15.550Z,28.98
2019-02-21T09:52:45.546Z,28.10
2019-02-21T09:55:17.764Z,28.87
2019-02-21T09:57:46.455Z,28.12
2019-02-21T10:00:23.758Z,26.87
2019-02-21T10:02:56.366Z,23.87
2019-02-21T10:05:23.020Z,23.70
2019-02-21T10:07:52.353Z,23.38
2019-02-21T10:10:20.849Z,22.60
2019-02-21T10:12:50.495Z,22.25
2019-02-21T10:15:19.100Z,21.37
2019-02-21T10:17:51.093Z,21.70
2019-02-21T10:20:23.573Z,23.00
2019-02-21T10:22:52.124Z,23.47
2019-02-21T10:25:26.219Z,21.40
2019-02-21T10:27:58.981Z,21.73
2019-02-21T10:32:58.276Z,21.35
2019-02-21T10:35:26.801Z,20.55
2019-02-21T10:37:55.402Z,21.70
2019-02-21T10:40:23.876Z,20.82
2019-02-21T10:42:54.272Z,22.30
2019-02-21T10:45:23.201Z,21.20
2019-02-21T10:47:51.728Z,21.93
2019-02-21T10:50:21.731Z,24.07
2019-02-21T10:52:51.058Z,21.50
2019-02-21T10:55:19.644Z,22.42
2019-02-21T10:57:48.175Z,23.07
2019-02-21T11:00:22.267Z,23.67
2019-02-21T11:02:50.814Z,23.30
2019-02-21T11:05:19.341Z,25.10
2019-02-21T11:07:48.000Z,26.27
2019-02-21T11:10:19.550Z,29.60
2019-02-21T11:12:51.797Z,28.23
2019-02-21T11:15:22.935Z,29.18
2019-02-21T11:17:52.217Z,29.25
2019-02-21T11:20:21.941Z,28.40
2019-02-21T11:22:50.483Z,28.10
2019-02-21T11:25:20.418Z,28.40
2019-02-21T11:27:48.902Z,27.77
2019-02-21T11:30:19.929Z,27.50
2019-02-21T11:32:49.151Z,26.87
2019-02-21T11:35:17.737Z,27.90
2019-02-21T11:37:47.394Z,28.23
2019-02-21T11:40:17.548Z,29.42
2019-02-21T11:42:46.342Z,29.10
2019-02-21T11:45:20.159Z,29.10
2019-02-21T11:47:50.137Z,28.57
2019-02-21T11:50:19.372Z,31.25
2019-02-21T11:52:51.777Z,28.77
2019-02-21T11:55:25.290Z,29.40
2019-02-21T11:57:53.979Z,26.80
2019-02-21T12:00:25.109Z,26.90
2019-02-21T12:02:53.658Z,26.33
2019-02-21T12:05:32.203Z,25.80
2019-02-21T12:07:54.861Z,25.08
2019-02-21T12:10:23.979Z,24.20
2019-02-21T12:12:53.796Z,23.30
2019-02-21T12:15:22.388Z,25.25
2019-02-21T12:17:52.107Z,24.52
2019-02-21T12:20:21.272Z,24.43
2019-02-21T12:22:49.796Z,25.80
2019-02-21T12:25:22.114Z,26.13
2019-02-21T12:27:51.475Z,22.93
2019-02-21T12:30:21.069Z,24.80
2019-02-21T12:32:49.691Z,25.30
2019-02-21T12:35:29.304Z,24.63
2019-02-21T12:37:52.465Z,25.43
2019-02-21T12:40:22.828Z,24.40
2019-02-21T12:42:51.296Z,23.32
2019-02-21T12:45:27.014Z,23.98
2019-02-21T12:47:55.547Z,24.82
2019-02-21T12:50:44.526Z,25.70
2019-02-21T12:53:14.850Z,24.23
2019-02-21T12:55:44.896Z,23.50
2019-02-21T12:58:13.404Z,25.62
2019-02-21T13:00:41.980Z,24.47
2019-02-21T13:03:10.448Z,23.57
2019-02-21T13:05:41.324Z,24.05
2019-02-21T13:08:11.253Z,21.93
2019-02-21T13:10:41.923Z,23.98
2019-02-21T13:13:17.596Z,23.00
2019-02-21T13:15:46.050Z,23.15
2019-02-21T13:18:16.243Z,24.27
2019-02-21T13:20:46.055Z,24.37
2019-02-21T13:23:14.875Z,24.57
2019-02-21T13:25:43.419Z,24.75
2019-02-21T13:28:13.448Z,24.72
2019-02-21T13:30:41.997Z,24.15
2019-02-21T13:33:10.448Z,24.92
2019-02-21T13:35:51.880Z,24.43
2019-02-21T13:38:11.690Z,25.62
2019-02-21T13:40:40.312Z,25.27
2019-02-21T13:43:08.803Z,25.85
2019-02-21T13:45:37.248Z,25.80
2019-02-21T13:48:05.792Z,26.27
2019-02-21T13:50:35.817Z,27.85
2019-02-21T13:53:05.886Z,26.00
2019-02-21T13:55:34.403Z,26.68
2019-02-21T13:58:04.140Z,27.77
2019-02-21T14:00:33.380Z,28.65
2019-02-21T14:03:01.909Z,27.02
2019-02-21T14:05:30.399Z,27.90
2019-02-21T14:07:59.053Z,26.97
2019-02-21T14:10:30.248Z,26.60
2019-02-21T14:12:58.697Z,26.25
2019-02-21T14:15:30.737Z,25.90
2019-02-21T14:17:59.244Z,24.15
2019-02-21T14:20:27.765Z,24.27
2019-02-21T14:22:56.258Z,26.97
2019-02-21T14:25:24.714Z,25.08
2019-02-21T14:27:53.203Z,26.55
2019-02-21T14:30:22.621Z,25.50
2019-02-21T14:32:51.184Z,22.37
2019-02-21T14:35:21.391Z,24.12
2019-02-21T14:37:49.859Z,24.50
2019-02-21T14:40:18.324Z,23.98
2019-02-21T14:42:46.797Z,25.68
2019-02-21T14:45:20.200Z,28.62
2019-02-21T14:47:49.991Z,27.95
2019-02-21T14:50:18.530Z,30.60
2019-02-21T14:52:47.036Z,32.05
2019-02-21T14:55:20.074Z,29.90
2019-02-21T14:57:50.298Z,29.23
2019-02-21T15:00:29.958Z,31.03
2019-02-21T15:02:58.762Z,32.13
2019-02-21T15:05:27.309Z,33.67
2019-02-21T15:07:58.951Z,30.68
2019-02-21T15:10:29.435Z,29.77
2019-02-21T15:12:58.577Z,30.45
2019-02-21T15:15:39.277Z,29.18
2019-02-21T15:18:11.319Z,30.00
2019-02-21T15:20:43.587Z,29.98
2019-02-21T15:23:12.493Z,29.07
2019-02-21T15:25:40.991Z,28.67
2019-02-21T15:28:10.155Z,30.82
2019-02-21T15:30:38.833Z,27.50
2019-02-21T15:33:07.391Z,26.95
2019-02-21T15:35:36.749Z,28.25
2019-02-21T15:38:05.480Z,25.60
2019-02-21T15:40:33.975Z,25.97
2019-02-21T15:43:05.144Z,27.20
2019-02-21T15:45:33.984Z,28.38
2019-02-21T15:48:03.983Z,26.97
2019-02-21T15:50:32.670Z,27.80
2019-02-21T15:53:02.003Z,28.85
2019-02-21T15:55:32.154Z,29.65
2019-02-21T15:58:05.961Z,28.65
2019-02-21T16:00:34.433Z,30.00
2019-02-21T16:03:06.179Z,26.07
2019-02-21T16:05:34.712Z,26.82
2019-02-21T16:08:03.248Z,26.45
2019-02-21T16:10:33.324Z,29.10
2019-02-21T16:13:04.301Z,29.90
2019-02-21T16:15:32.122Z,28.67
2019-02-21T16:18:02.129Z,29.60
2019-02-21T16:20:30.655Z,30.45
2019-02-21T16:22:59.113Z,27.80
2019-02-21T16:25:35.899Z,28.10
2019-02-21T16:28:04.636Z,30.08
2019-02-21T16:30:33.241Z,29.65
2019-02-21T16:33:01.728Z,32.08
2019-02-21T16:35:33.814Z,33.25
2019-02-21T16:38:02.459Z,34.63
2019-02-21T16:40:31.020Z,34.85
2019-02-21T16:42:59.479Z,35.25
2019-02-21T16:45:39.842Z,35.15
2019-02-21T16:47:58.129Z,38.63
2019-02-21T16:50:29.605Z,40.55
2019-02-21T16:52:56.826Z,39.30
2019-02-21T16:55:27.255Z,40.80
2019-02-21T16:57:55.707Z,38.55
2019-02-21T17:00:25.212Z,36.77
2019-02-21T17:02:56.746Z,40.45
2019-02-21T17:05:25.208Z,38.50
2019-02-21T17:07:55.643Z,41.88
2019-02-21T17:10:24.144Z,40.70
2019-02-21T17:12:55.750Z,42.85
2019-02-21T17:15:24.362Z,40.15
2019-02-21T17:17:54.775Z,43.10
2019-02-21T17:20:24.674Z,42.75
2019-02-21T17:22:53.346Z,45.38
2019-02-21T17:25:23.156Z,44.40
2019-02-21T17:27:51.968Z,43.52
2019-02-21T17:30:20.798Z,44.55
2019-02-21T17:32:49.416Z,44.80
2019-02-21T17:35:17.984Z,45.20
2019-02-21T17:37:46.605Z,39.98
2019-02-21T17:40:17.814Z,42.53
2019-02-21T17:42:46.348Z,40.85
2019-02-21T17:45:14.958Z,42.98
2019-02-21T17:47:43.428Z,45.63
2019-02-21T17:50:14.737Z,45.55
2019-02-21T17:52:43.298Z,47.13
2019-02-21T17:55:12.257Z,47.25
2019-02-21T17:57:40.785Z,49.45
2019-02-21T18:00:19.903Z,47.88
2019-02-21T18:02:48.464Z,43.58
2019-02-21T18:05:17.053Z,47.78
2019-02-21T18:07:45.781Z,47.00
2019-02-21T18:10:16.509Z,49.10
2019-02-21T18:12:44.993Z,50.90
2019-02-21T18:15:17.858Z,51.37
2019-02-21T18:17:46.515Z,50.45
2019-02-21T18:20:16.068Z,47.03
2019-02-21T18:22:44.704Z,46.92
2019-02-21T18:25:34.556Z,48.40
2019-02-21T18:28:03.427Z,49.85
2019-02-21T18:30:33.321Z,53.42
2019-02-21T18:33:01.815Z,52.98
2019-02-21T18:35:30.385Z,52.58
2019-02-21T18:37:58.874Z,52.40
2019-02-21T18:40:29.615Z,52.08
2019-02-21T18:43:03.071Z,50.75
2019-02-21T18:45:31.683Z,53.07
2019-02-21T18:48:02.461Z,53.50
2019-02-21T18:50:38.114Z,54.33
2019-02-21T18:53:01.279Z,51.80
2019-02-21T18:55:29.922Z,54.08
2019-02-21T18:57:58.576Z,52.88
2019-02-21T19:00:27.414Z,54.75
2019-02-21T19:02:56.169Z,55.67
2019-02-21T19:05:34.938Z,55.52
2019-02-21T19:08:05.660Z,55.50
2019-02-21T19:10:34.338Z,58.28
2019-02-21T19:13:03.068Z,54.70
2019-02-21T19:15:32.104Z,57.40
2019-02-21T19:18:02.250Z,58.15
2019-02-21T19:20:30.774Z,56.48
2019-02-21T19:23:00.021Z,55.50
2019-02-21T19:25:31.046Z,58.92
2019-02-21T19:27:59.988Z,54.63
2019-02-21T19:30:34.164Z,57.33
2019-02-21T19:33:02.938Z,57.70
2019-02-21T19:35:32.626Z,57.23
2019-02-21T19:38:10.309Z,59.15
2019-02-21T19:40:32.981Z,59.60
2019-02-21T19:43:01.480Z,56.23
2019-02-21T19:45:29.996Z,58.68
2019-02-21T19:47:58.558Z,58.83
2019-02-21T19:50:27.348Z,57.75
2019-02-21T19:52:56.559Z,59.85
2019-02-21T19:55:25.083Z,57.90
2019-02-21T19:57:53.760Z,55.80
2019-02-21T20:00:25.932Z,58.93
2019-02-21T20:02:55.044Z,57.53
2019-02-21T20:05:23.716Z,61.80
2019-02-21T20:07:53.788Z,58.73
2019-02-21T20:10:25.968Z,58.95
2019-02-21T20:12:54.675Z,59.88
2019-02-21T20:15:27.536Z,57.62
2019-02-21T20:17:56.177Z,59.50
2019-02-21T20:20:26.900Z,58.37
2019-02-21T20:22:55.411Z,60.03
2019-02-21T20:25:26.848Z,56.53
2019-02-21T20:27:55.506Z,58.02
2019-02-21T20:30:24.776Z,58.95
2019-02-21T20:32:53.258Z,59.77
2019-02-21T20:35:21.774Z,55.45
2019-02-21T20:37:50.313Z,59.50
2019-02-21T20:40:18.941Z,57.58
2019-02-21T20:42:47.731Z,56.13
2019-02-21T20:45:16.322Z,56.85
2019-02-21T20:47:44.877Z,56.92
2019-02-21T20:50:14.274Z,56.58
2019-02-21T20:52:42.831Z,56.35
2019-02-21T20:55:12.461Z,55.55
2019-02-21T20:57:41.069Z,56.05
2019-02-21T21:00:12.948Z,54.77
2019-02-21T21:02:42.697Z,54.15
2019-02-21T21:05:12.756Z,55.00
2019-02-21T21:07:44.523Z,54.20
2019-02-21T21:10:14.777Z,53.48
2019-02-21T21:12:43.352Z,61.20
2019-02-21T21:15:13.675Z,52.78
2019-02-21T21:17:44.227Z,55.35
2019-02-21T21:20:16.936Z,53.78
2019-02-21T21:22:44.815Z,52.95
2019-02-21T21:25:18.836Z,53.83
2019-02-21T21:27:53.827Z,51.55
2019-02-21T21:30:22.356Z,52.50
2019-02-21T21:32:52.172Z,51.10
2019-02-21T21:35:25.023Z,52.00
2019-02-21T21:37:53.485Z,53.02
2019-02-21T21:40:21.978Z,52.40
2019-02-21T21:42:50.467Z,51.30
2019-02-21T21:45:19.049Z,51.53
2019-02-21T21:47:47.689Z,51.15
2019-02-21T21:50:19.560Z,51.75
2019-02-21T21:52:48.093Z,53.17
2019-02-21T21:55:16.726Z,50.30
2019-02-21T21:57:45.393Z,50.70
2019-02-21T22:00:18.117Z,51.37
2019-02-21T22:02:47.086Z,50.73
2019-02-21T22:05:15.859Z,51.53
2019-02-21T22:07:44.503Z,54.93
2019-02-21T22:10:14.459Z,51.95
2019-02-21T22:12:49.875Z,51.05
2019-02-21T22:15:21.825Z,51.80
2019-02-21T22:17:52.353Z,54.00
2019-02-21T22:20:20.823Z,49.45
2019-02-21T22:22:49.285Z,49.10
2019-02-21T22:25:17.798Z,49.67
2019-02-21T22:27:46.471Z,52.65
2019-02-21T22:30:21.840Z,52.53
2019-02-21T22:32:50.438Z,51.37
2019-02-21T22:35:20.101Z,51.23
2019-02-21T22:37:48.568Z,50.52
2019-02-21T22:40:20.880Z,51.63
2019-02-21T22:42:49.479Z,52.55
2019-02-21T22:45:21.664Z,52.55
2019-02-21T22:47:50.130Z,49.55
2019-02-21T22:50:20.033Z,52.37
2019-02-21T22:52:48.635Z,52.83
2019-02-21T22:55:21.340Z,53.40
2019-02-21T22:57:52.094Z,53.45
2019-02-21T23:00:37.095Z,51.65
2019-02-21T23:03:10.933Z,50.88
2019-02-21T23:05:48.584Z,53.58
2019-02-21T23:08:28.764Z,50.40
2019-02-21T23:10:58.843Z,51.18
2019-02-21T23:13:28.848Z,51.90
2019-02-21T23:15:57.414Z,52.93
2019-02-21T23:18:25.959Z,53.80
2019-02-21T23:20:57.110Z,52.62
2019-02-21T23:23:32.411Z,52.83
2019-02-21T23:26:02.544Z,50.40
2019-02-21T23:28:31.104Z,51.23
2019-02-21T23:31:01.087Z,49.58
2019-02-21T23:33:30.994Z,50.17
2019-02-21T23:35:59.459Z,49.53
2019-02-21T23:38:29.520Z,51.23
2019-02-21T23:40:58.069Z,51.15
2019-02-21T23:43:26.518Z,51.00
2019-02-21T23:45:55.139Z,50.45
2019-02-21T23:48:29.150Z,48.00
2019-02-21T23:51:00.911Z,50.38
2019-02-21T23:53:29.417Z,50.58
2019-02-21T23:55:57.889Z,50.33
2019-02-21T23:58:26.339Z,48.55
